sensor_id;sensor_type;location;lat;lon;timestamp;pressure;altitude;pressure_sealevel;temperature;humidity
78855;BME280;68206;59.956;30.234;2023-10-09T00:00:14;100336.72;;;3.99;72.46
78855;BME280;68206;59.956;30.234;2023-10-09T00:03:03;100337.63;;;3.95;72.71
78855;BME280;68206;59.956;30.234;2023-10-09T00:05:36;100347.28;;;3.93;72.94
78855;BME280;68206;59.956;30.234;2023-10-09T00:08:14;100345.53;;;3.92;72.82
78855;BME280;68206;59.956;30.234;2023-10-09T00:10:49;100337.66;;;3.89;72.97
78855;BME280;68206;59.956;30.234;2023-10-09T00:13:21;100335.91;;;3.91;72.89
78855;BME280;68206;59.956;30.234;2023-10-09T00:15:55;100342.91;;;3.92;72.73
78855;BME280;68206;59.956;30.234;2023-10-09T00:18:35;100352.47;;;3.94;72.99
78855;BME280;68206;59.956;30.234;2023-10-09T00:21:06;100352.47;;;3.94;72.92
78855;BME280;68206;59.956;30.234;2023-10-09T00:23:39;100350.78;;;3.92;72.87
78855;BME280;68206;59.956;30.234;2023-10-09T00:26:09;100350.78;;;3.92;73.02
78855;BME280;68206;59.956;30.234;2023-10-09T00:28:47;100353.41;;;3.90;72.79
78855;BME280;68206;59.956;30.234;2023-10-09T00:31:19;100352.53;;;3.90;72.93
78855;BME280;68206;59.956;30.234;2023-10-09T00:33:57;100349.84;;;3.96;72.84
78855;BME280;68206;59.956;30.234;2023-10-09T00:36:36;100349.84;;;3.94;72.19
78855;BME280;68206;59.956;30.234;2023-10-09T00:39:18;100357.78;;;3.91;72.58
78855;BME280;68206;59.956;30.234;2023-10-09T00:42:07;100352.53;;;3.88;72.78
78855;BME280;68206;59.956;30.234;2023-10-09T00:44:39;100354.31;;;3.85;72.76
78855;BME280;68206;59.956;30.234;2023-10-09T00:47:11;100364.81;;;3.83;72.68
78855;BME280;68206;59.956;30.234;2023-10-09T00:49:52;100361.31;;;3.84;72.90
78855;BME280;68206;59.956;30.234;2023-10-09T00:52:31;100360.44;;;3.82;73.02
78855;BME280;68206;59.956;30.234;2023-10-09T00:55:03;100360.44;;;3.84;72.83
78855;BME280;68206;59.956;30.234;2023-10-09T00:57:42;100365.69;;;3.84;72.56
78855;BME280;68206;59.956;30.234;2023-10-09T01:00:17;100368.31;;;3.82;72.67
78855;BME280;68206;59.956;30.234;2023-10-09T01:03:01;100367.44;;;3.83;72.66
78855;BME280;68206;59.956;30.234;2023-10-09T01:05:48;100366.56;;;3.83;72.87
78855;BME280;68206;59.956;30.234;2023-10-09T01:08:28;100369.19;;;3.86;72.30
78855;BME280;68206;59.956;30.234;2023-10-09T01:10:58;100369.19;;;3.86;72.59
78855;BME280;68206;59.956;30.234;2023-10-09T01:13:39;100370.94;;;3.84;72.42
78855;BME280;68206;59.956;30.234;2023-10-09T01:16:21;100384.94;;;3.83;72.63
78855;BME280;68206;59.956;30.234;2023-10-09T01:18:52;100386.69;;;3.82;72.48
78855;BME280;68206;59.956;30.234;2023-10-09T01:21:24;100385.81;;;3.83;72.47
78855;BME280;68206;59.956;30.234;2023-10-09T01:23:55;100373.56;;;3.85;72.59
78855;BME280;68206;59.956;30.234;2023-10-09T01:26:33;100378.75;;;3.88;72.67
78855;BME280;68206;59.956;30.234;2023-10-09T01:29:07;100386.69;;;3.84;72.40
78855;BME280;68206;59.956;30.234;2023-10-09T01:31:38;100390.16;;;3.86;72.32
78855;BME280;68206;59.956;30.234;2023-10-09T01:34:11;100394.53;;;3.87;72.25
78855;BME280;68206;59.956;30.234;2023-10-09T01:36:42;100397.16;;;3.84;72.46
78855;BME280;68206;59.956;30.234;2023-10-09T01:39:17;100399.81;;;3.82;71.94
78855;BME280;68206;59.956;30.234;2023-10-09T01:41:56;100398.91;;;3.86;72.73
78855;BME280;68206;59.956;30.234;2023-10-09T01:44:28;100404.13;;;3.91;72.73
78855;BME280;68206;59.956;30.234;2023-10-09T01:47:01;100405.88;;;3.87;72.38
78855;BME280;68206;59.956;30.234;2023-10-09T01:49:35;100404.13;;;3.89;72.34
78855;BME280;68206;59.956;30.234;2023-10-09T01:52:04;100408.50;;;3.87;72.39
78855;BME280;68206;59.956;30.234;2023-10-09T01:54:38;100406.78;;;3.85;72.41
78855;BME280;68206;59.956;30.234;2023-10-09T01:57:08;100397.16;;;3.84;72.43
78855;BME280;68206;59.956;30.234;2023-10-09T01:59:42;100396.31;;;3.82;72.44
78855;BME280;68206;59.956;30.234;2023-10-09T02:02:18;100416.41;;;3.83;72.62
78855;BME280;68206;59.956;30.234;2023-10-09T02:05:04;100405.91;;;3.83;72.63
78855;BME280;68206;59.956;30.234;2023-10-09T02:07:38;100407.72;;;3.81;72.77
78855;BME280;68206;59.956;30.234;2023-10-09T02:10:14;100411.16;;;3.86;72.61
78855;BME280;68206;59.956;30.234;2023-10-09T02:12:53;100409.38;;;3.91;72.71
78855;BME280;68206;59.956;30.234;2023-10-09T02:15:29;100412.88;;;3.90;72.65
78855;BME280;68206;59.956;30.234;2023-10-09T02:18:20;100407.63;;;3.93;72.44
78855;BME280;68206;59.956;30.234;2023-10-09T02:21:06;100416.31;;;3.98;72.24
78855;BME280;68206;59.956;30.234;2023-10-09T02:23:41;100419.78;;;4.00;72.25
78855;BME280;68206;59.956;30.234;2023-10-09T02:26:19;100414.53;;;4.00;72.48
78855;BME280;68206;59.956;30.234;2023-10-09T02:28:54;100417.97;;;4.08;72.02
78855;BME280;68206;59.956;30.234;2023-10-09T02:31:28;100413.59;;;4.09;72.07
78855;BME280;68206;59.956;30.234;2023-10-09T02:34:03;100409.22;;;4.06;72.07
78855;BME280;68206;59.956;30.234;2023-10-09T02:36:33;100413.63;;;4.04;72.05
78855;BME280;68206;59.956;30.234;2023-10-09T02:39:05;100411.88;;;4.04;71.73
78855;BME280;68206;59.956;30.234;2023-10-09T02:41:50;100411.88;;;4.03;71.61
78855;BME280;68206;59.956;30.234;2023-10-09T02:44:21;100412.78;;;4.02;71.72
78855;BME280;68206;59.956;30.234;2023-10-09T02:46:53;100416.25;;;4.04;71.79
78855;BME280;68206;59.956;30.234;2023-10-09T02:49:24;100412.75;;;4.03;71.97
78855;BME280;68206;59.956;30.234;2023-10-09T02:51:54;100407.47;;;4.11;72.05
78855;BME280;68206;59.956;30.234;2023-10-09T02:54:22;100412.66;;;4.14;71.57
78855;BME280;68206;59.956;30.234;2023-10-09T02:57:04;100411.78;;;4.14;71.98
78855;BME280;68206;59.956;30.234;2023-10-09T02:59:36;100417.91;;;4.13;71.86
78855;BME280;68206;59.956;30.234;2023-10-09T03:02:08;100419.66;;;4.14;71.99
78855;BME280;68206;59.956;30.234;2023-10-09T03:04:38;100419.66;;;4.17;71.70
78855;BME280;68206;59.956;30.234;2023-10-09T03:07:09;100423.16;;;4.17;71.45
78855;BME280;68206;59.956;30.234;2023-10-09T03:09:37;100411.78;;;4.17;71.58
78855;BME280;68206;59.956;30.234;2023-10-09T03:12:10;100428.38;;;4.20;71.50
78855;BME280;68206;59.956;30.234;2023-10-09T03:14:40;100426.66;;;4.18;71.54
78855;BME280;68206;59.956;30.234;2023-10-09T03:17:08;100431.00;;;4.19;71.37
78855;BME280;68206;59.956;30.234;2023-10-09T03:19:40;100425.75;;;4.19;71.23
78855;BME280;68206;59.956;30.234;2023-10-09T03:22:11;100424.91;;;4.15;71.37
78855;BME280;68206;59.956;30.234;2023-10-09T03:24:40;100432.78;;;4.15;71.43
78855;BME280;68206;59.956;30.234;2023-10-09T03:27:18;100435.41;;;4.17;70.79
78855;BME280;68206;59.956;30.234;2023-10-09T03:29:46;100437.16;;;4.16;71.01
78855;BME280;68206;59.956;30.234;2023-10-09T03:32:21;100436.28;;;4.16;70.84
78855;BME280;68206;59.956;30.234;2023-10-09T03:34:51;100431.97;;;4.12;71.08
78855;BME280;68206;59.956;30.234;2023-10-09T03:37:19;100438.03;;;4.14;71.05
78855;BME280;68206;59.956;30.234;2023-10-09T03:40:01;100441.59;;;4.10;70.98
78855;BME280;68206;59.956;30.234;2023-10-09T03:42:32;100438.97;;;4.08;71.14
78855;BME280;68206;59.956;30.234;2023-10-09T03:45:04;100435.44;;;4.12;71.04
78855;BME280;68206;59.956;30.234;2023-10-09T03:47:40;100438.91;;;4.14;70.96
78855;BME280;68206;59.956;30.234;2023-10-09T03:50:10;100430.16;;;4.14;70.83
78855;BME280;68206;59.956;30.234;2023-10-09T03:52:51;100429.34;;;4.12;70.37
78855;BME280;68206;59.956;30.234;2023-10-09T03:55:22;100434.59;;;4.09;70.82
78855;BME280;68206;59.956;30.234;2023-10-09T03:57:56;100432.84;;;4.07;70.70
78855;BME280;68206;59.956;30.234;2023-10-09T04:00:28;100424.97;;;4.06;70.86
78855;BME280;68206;59.956;30.234;2023-10-09T04:02:58;100425.88;;;4.02;70.91
78855;BME280;68206;59.956;30.234;2023-10-09T04:05:27;100428.47;;;4.08;70.72
78855;BME280;68206;59.956;30.234;2023-10-09T04:07:55;100431.97;;;4.10;70.79
78855;BME280;68206;59.956;30.234;2023-10-09T04:10:25;100440.72;;;4.09;70.77
78855;BME280;68206;59.956;30.234;2023-10-09T04:13:24;100432.84;;;4.06;70.45
78855;BME280;68206;59.956;30.234;2023-10-09T04:16:01;100439.78;;;4.13;70.20
78855;BME280;68206;59.956;30.234;2023-10-09T04:18:37;100438.94;;;4.11;70.15
78855;BME280;68206;59.956;30.234;2023-10-09T04:21:07;100438.03;;;4.15;69.99
78855;BME280;68206;59.956;30.234;2023-10-09T04:23:46;100435.41;;;4.15;69.84
78855;BME280;68206;59.956;30.234;2023-10-09T04:26:35;100436.28;;;4.16;70.35
78855;BME280;68206;59.956;30.234;2023-10-09T04:29:05;100438.00;;;4.20;70.13
78855;BME280;68206;59.956;30.234;2023-10-09T04:31:37;100438.03;;;4.17;70.29
78855;BME280;68206;59.956;30.234;2023-10-09T04:34:06;100446.72;;;4.20;70.15
78855;BME280;68206;59.956;30.234;2023-10-09T04:36:50;100449.31;;;4.25;69.77
78855;BME280;68206;59.956;30.234;2023-10-09T04:39:23;100444.94;;;4.27;69.76
78855;BME280;68206;59.956;30.234;2023-10-09T04:42:14;100456.34;;;4.24;69.66
78855;BME280;68206;59.956;30.234;2023-10-09T04:45:06;100444.94;;;4.25;69.81
78855;BME280;68206;59.956;30.234;2023-10-09T04:48:07;100446.69;;;4.29;69.81
78855;BME280;68206;59.956;30.234;2023-10-09T04:50:36;100449.31;;;4.29;69.59
78855;BME280;68206;59.956;30.234;2023-10-09T04:53:13;100454.56;;;4.29;69.55
78855;BME280;68206;59.956;30.234;2023-10-09T04:55:58;100454.56;;;4.29;69.18
78855;BME280;68206;59.956;30.234;2023-10-09T04:58:32;100450.19;;;4.30;69.20
78855;BME280;68206;59.956;30.234;2023-10-09T05:01:07;100446.69;;;4.29;68.97
78855;BME280;68206;59.956;30.234;2023-10-09T05:03:42;100461.50;;;4.33;68.90
78855;BME280;68206;59.956;30.234;2023-10-09T05:06:10;100454.50;;;4.35;69.14
78855;BME280;68206;59.956;30.234;2023-10-09T05:09:00;100465.81;;;4.40;69.17
78855;BME280;68206;59.956;30.234;2023-10-09T05:11:36;100459.69;;;4.38;68.19
78855;BME280;68206;59.956;30.234;2023-10-09T05:14:36;100466.75;;;4.36;68.31
78855;BME280;68206;59.956;30.234;2023-10-09T05:17:14;100471.09;;;4.39;68.19
78855;BME280;68206;59.956;30.234;2023-10-09T05:19:44;100463.16;;;4.46;67.79
78855;BME280;68206;59.956;30.234;2023-10-09T05:22:46;100464.00;;;4.49;68.14
78855;BME280;68206;59.956;30.234;2023-10-09T05:25:25;100468.41;;;4.45;67.62
78855;BME280;68206;59.956;30.234;2023-10-09T05:28:22;100458.72;;;4.50;67.93
78855;BME280;68206;59.956;30.234;2023-10-09T05:30:58;100469.09;;;4.64;67.30
78855;BME280;68206;59.956;30.234;2023-10-09T05:33:37;100475.22;;;4.64;67.37
78855;BME280;68206;59.956;30.234;2023-10-09T05:36:06;100477.84;;;4.64;66.84
78855;BME280;68206;59.956;30.234;2023-10-09T05:38:59;100473.47;;;4.68;67.31
78855;BME280;68206;59.956;30.234;2023-10-09T05:41:44;100469.03;;;4.70;66.24
78855;BME280;68206;59.956;30.234;2023-10-09T05:44:19;100468.22;;;4.68;66.62
78855;BME280;68206;59.956;30.234;2023-10-09T05:47:06;100476.09;;;4.66;66.49
78855;BME280;68206;59.956;30.234;2023-10-09T05:49:53;100474.28;;;4.70;66.51
78855;BME280;68206;59.956;30.234;2023-10-09T05:52:50;100483.03;;;4.72;66.30
78855;BME280;68206;59.956;30.234;2023-10-09T05:55:44;100478.66;;;4.74;66.56
78855;BME280;68206;59.956;30.234;2023-10-09T05:58:29;100476.84;;;4.80;66.15
78855;BME280;68206;59.956;30.234;2023-10-09T06:01:15;100495.19;;;4.85;65.58
78855;BME280;68206;59.956;30.234;2023-10-09T06:04:01;100482.00;;;4.88;65.97
78855;BME280;68206;59.956;30.234;2023-10-09T06:06:44;100484.56;;;4.94;65.68
78855;BME280;68206;59.956;30.234;2023-10-09T06:09:14;100480.16;;;4.96;64.81
78855;BME280;68206;59.956;30.234;2023-10-09T06:12:17;100493.22;;;5.04;64.77
78855;BME280;68206;59.956;30.234;2023-10-09T06:15:03;100483.41;;;5.21;65.19
78855;BME280;68206;59.956;30.234;2023-10-09T06:17:58;100480.66;;;5.30;64.42
78855;BME280;68206;59.956;30.234;2023-10-09T06:20:47;100484.03;;;5.43;63.73
78855;BME280;68206;59.956;30.234;2023-10-09T06:23:33;100485.53;;;5.60;63.50
78855;BME280;68206;59.956;30.234;2023-10-09T06:26:16;100486.06;;;5.87;62.62
78855;BME280;68206;59.956;30.234;2023-10-09T06:28:54;100479.97;;;6.43;61.82
78855;BME280;68206;59.956;30.234;2023-10-09T06:31:36;100484.91;;;7.10;59.63
78855;BME280;68206;59.956;30.234;2023-10-09T06:34:27;100488.31;;;7.58;58.30
78855;BME280;68206;59.956;30.234;2023-10-09T06:37:00;100485.75;;;7.55;57.25
78855;BME280;68206;59.956;30.234;2023-10-09T06:39:36;100484.69;;;7.62;56.75
78855;BME280;68206;59.956;30.234;2023-10-09T06:42:25;100485.84;;;8.28;56.33
78855;BME280;68206;59.956;30.234;2023-10-09T06:45:15;100484.31;;;9.83;52.66
78855;BME280;68206;59.956;30.234;2023-10-09T06:47:46;100487.63;;;10.19;51.20
78855;BME280;68206;59.956;30.234;2023-10-09T06:50:23;100479.41;;;11.30;47.27
78855;BME280;68206;59.956;30.234;2023-10-09T06:53:14;100483.63;;;11.84;45.49
78855;BME280;68206;59.956;30.234;2023-10-09T06:55:54;100487.06;;;12.09;45.27
78855;BME280;68206;59.956;30.234;2023-10-09T06:58:33;100484.75;;;12.43;43.85
78855;BME280;68206;59.956;30.234;2023-10-09T07:01:09;100487.88;;;12.75;43.19
78855;BME280;68206;59.956;30.234;2023-10-09T07:03:56;100488.00;;;13.73;41.04
78855;BME280;68206;59.956;30.234;2023-10-09T07:06:38;100486.69;;;13.24;40.56
78855;BME280;68206;59.956;30.234;2023-10-09T07:09:18;100485.84;;;12.18;40.91
78855;BME280;68206;59.956;30.234;2023-10-09T07:11:51;100484.59;;;12.04;41.91
78855;BME280;68206;59.956;30.234;2023-10-09T07:14:26;100491.28;;;11.68;43.05
78855;BME280;68206;59.956;30.234;2023-10-09T07:17:15;100498.88;;;11.30;43.90
78855;BME280;68206;59.956;30.234;2023-10-09T07:20:08;100498.81;;;11.07;44.24
78855;BME280;68206;59.956;30.234;2023-10-09T07:22:41;100501.25;;;10.36;44.49
78855;BME280;68206;59.956;30.234;2023-10-09T07:25:23;100503.50;;;9.91;45.97
78855;BME280;68206;59.956;30.234;2023-10-09T07:28:11;100511.53;;;9.58;47.11
78855;BME280;68206;59.956;30.234;2023-10-09T07:31:04;100506.41;;;9.20;47.97
78855;BME280;68206;59.956;30.234;2023-10-09T07:33:37;100516.41;;;9.10;48.03
78855;BME280;68206;59.956;30.234;2023-10-09T07:36:26;100509.91;;;8.88;49.17
78855;BME280;68206;59.956;30.234;2023-10-09T07:39:06;100501.81;;;8.62;49.79
78855;BME280;68206;59.956;30.234;2023-10-09T07:41:44;100505.94;;;8.72;49.72
78855;BME280;68206;59.956;30.234;2023-10-09T07:44:26;100515.63;;;8.73;49.22
78855;BME280;68206;59.956;30.234;2023-10-09T07:47:05;100508.91;;;8.60;49.79
78855;BME280;68206;59.956;30.234;2023-10-09T07:49:47;100515.53;;;8.40;50.38
78855;BME280;68206;59.956;30.234;2023-10-09T07:52:26;100523.50;;;8.39;49.66
78855;BME280;68206;59.956;30.234;2023-10-09T07:54:57;100525.88;;;8.49;49.97
78855;BME280;68206;59.956;30.234;2023-10-09T07:57:33;100528.63;;;8.45;49.89
78855;BME280;68206;59.956;30.234;2023-10-09T08:00:12;100526.69;;;8.53;49.85
78855;BME280;68206;59.956;30.234;2023-10-09T08:03:02;100522.75;;;8.69;49.69
78855;BME280;68206;59.956;30.234;2023-10-09T08:05:37;100534.63;;;8.87;48.96
78855;BME280;68206;59.956;30.234;2023-10-09T08:08:12;100531.16;;;8.86;49.05
78855;BME280;68206;59.956;30.234;2023-10-09T08:11:09;100533.81;;;8.85;48.45
78855;BME280;68206;59.956;30.234;2023-10-09T08:13:55;100535.34;;;8.94;48.77
78855;BME280;68206;59.956;30.234;2023-10-09T08:16:30;100532.44;;;9.04;48.83
78855;BME280;68206;59.956;30.234;2023-10-09T08:19:04;100543.63;;;9.14;48.72
78855;BME280;68206;59.956;30.234;2023-10-09T08:21:47;100539.72;;;8.95;48.73
78855;BME280;68206;59.956;30.234;2023-10-09T08:24:37;100541.72;;;8.86;48.11
78855;BME280;68206;59.956;30.234;2023-10-09T08:27:09;100546.53;;;8.69;48.39
78855;BME280;68206;59.956;30.234;2023-10-09T08:30:14;100551.41;;;8.50;49.21
78855;BME280;68206;59.956;30.234;2023-10-09T08:32:57;100539.53;;;8.30;49.65
78855;BME280;68206;59.956;30.234;2023-10-09T08:35:38;100552.72;;;8.31;49.93
78855;BME280;68206;59.956;30.234;2023-10-09T08:38:16;100544.00;;;8.28;50.22
78855;BME280;68206;59.956;30.234;2023-10-09T08:40:51;100550.16;;;8.27;50.24
78855;BME280;68206;59.956;30.234;2023-10-09T08:43:26;100553.81;;;8.21;50.83
78855;BME280;68206;59.956;30.234;2023-10-09T08:46:00;100557.47;;;8.16;51.06
78855;BME280;68206;59.956;30.234;2023-10-09T08:48:32;100555.59;;;8.21;50.95
78855;BME280;68206;59.956;30.234;2023-10-09T08:51:04;100554.53;;;8.29;50.90
78855;BME280;68206;59.956;30.234;2023-10-09T08:53:33;100561.44;;;8.36;50.00
78855;BME280;68206;59.956;30.234;2023-10-09T08:56:02;100555.44;;;8.28;50.77
78855;BME280;68206;59.956;30.234;2023-10-09T08:58:31;100561.59;;;8.30;50.37
78855;BME280;68206;59.956;30.234;2023-10-09T09:01:04;100559.78;;;8.31;49.44
78855;BME280;68206;59.956;30.234;2023-10-09T09:03:41;100554.41;;;8.35;49.87
78855;BME280;68206;59.956;30.234;2023-10-09T09:06:12;100559.56;;;8.41;49.58
78855;BME280;68206;59.956;30.234;2023-10-09T09:08:43;100553.97;;;8.54;49.47
78855;BME280;68206;59.956;30.234;2023-10-09T09:11:14;100553.97;;;8.54;49.53
78855;BME280;68206;59.956;30.234;2023-10-09T09:13:46;100560.03;;;8.59;49.71
78855;BME280;68206;59.956;30.234;2023-10-09T09:16:18;100567.06;;;8.60;49.44
78855;BME280;68206;59.956;30.234;2023-10-09T09:18:53;100561.22;;;8.45;49.64
78855;BME280;68206;59.956;30.234;2023-10-09T09:21:29;100555.16;;;8.42;49.80
78855;BME280;68206;59.956;30.234;2023-10-09T09:24:00;100568.50;;;8.36;50.20
78855;BME280;68206;59.956;30.234;2023-10-09T09:26:34;100569.38;;;8.36;49.79
78855;BME280;68206;59.956;30.234;2023-10-09T09:29:05;100569.53;;;8.27;50.22
78855;BME280;68206;59.956;30.234;2023-10-09T09:31:35;100571.22;;;8.31;50.10
78855;BME280;68206;59.956;30.234;2023-10-09T09:34:08;100577.38;;;8.32;49.84
78855;BME280;68206;59.956;30.234;2023-10-09T09:36:50;100587.81;;;8.38;50.17
78855;BME280;68206;59.956;30.234;2023-10-09T09:39:22;100588.63;;;8.41;49.77
78855;BME280;68206;59.956;30.234;2023-10-09T09:42:11;100586.00;;;8.41;49.95
78855;BME280;68206;59.956;30.234;2023-10-09T09:44:42;100577.47;;;8.26;50.15
78855;BME280;68206;59.956;30.234;2023-10-09T09:47:13;100583.88;;;8.17;50.76
78855;BME280;68206;59.956;30.234;2023-10-09T09:49:52;100587.59;;;8.07;50.36
78855;BME280;68206;59.956;30.234;2023-10-09T09:52:29;100588.53;;;8.04;50.52
78855;BME280;68206;59.956;30.234;2023-10-09T09:55:09;100579.31;;;8.24;50.04
78855;BME280;68206;59.956;30.234;2023-10-09T09:57:44;100583.78;;;8.20;50.03
78855;BME280;68206;59.956;30.234;2023-10-09T10:00:21;100589.91;;;8.22;50.59
78855;BME280;68206;59.956;30.234;2023-10-09T10:03:04;100585.66;;;8.15;50.73
78855;BME280;68206;59.956;30.234;2023-10-09T10:05:37;100584.91;;;8.10;50.52
78855;BME280;68206;59.956;30.234;2023-10-09T10:08:07;100586.56;;;8.14;50.98
78855;BME280;68206;59.956;30.234;2023-10-09T10:10:41;100586.78;;;8.03;51.13
78855;BME280;68206;59.956;30.234;2023-10-09T10:13:54;100589.72;;;7.90;51.26
78855;BME280;68206;59.956;30.234;2023-10-09T10:16:26;100584.31;;;7.96;50.88
78855;BME280;68206;59.956;30.234;2023-10-09T10:19:03;100588.06;;;7.86;50.85
78855;BME280;68206;59.956;30.234;2023-10-09T10:21:51;100591.50;;;7.88;50.93
78855;BME280;68206;59.956;30.234;2023-10-09T10:24:42;100581.69;;;7.94;51.01
78855;BME280;68206;59.956;30.234;2023-10-09T10:27:22;100580.69;;;8.00;51.04
78855;BME280;68206;59.956;30.234;2023-10-09T10:30:28;100589.34;;;8.08;50.57
78855;BME280;68206;59.956;30.234;2023-10-09T10:33:04;100592.88;;;8.07;50.52
78855;BME280;68206;59.956;30.234;2023-10-09T10:35:43;100579.72;;;8.05;50.29
78855;BME280;68206;59.956;30.234;2023-10-09T10:38:31;100586.78;;;8.05;50.32
78855;BME280;68206;59.956;30.234;2023-10-09T10:41:16;100588.75;;;7.94;50.72
78855;BME280;68206;59.956;30.234;2023-10-09T10:43:46;100591.25;;;8.00;50.23
78855;BME280;68206;59.956;30.234;2023-10-09T10:46:26;100589.41;;;8.05;50.46
78855;BME280;68206;59.956;30.234;2023-10-09T10:49:10;100579.59;;;8.12;50.56
78855;BME280;68206;59.956;30.234;2023-10-09T10:51:43;100587.31;;;8.19;50.49
78855;BME280;68206;59.956;30.234;2023-10-09T10:54:24;100590.81;;;8.21;50.50
78855;BME280;68206;59.956;30.234;2023-10-09T10:57:15;100575.84;;;8.20;50.46
78855;BME280;68206;59.956;30.234;2023-10-09T10:59:47;100586.31;;;8.25;50.37
78855;BME280;68206;59.956;30.234;2023-10-09T11:02:16;100586.31;;;8.25;50.32
78855;BME280;68206;59.956;30.234;2023-10-09T11:04:55;100588.16;;;8.21;50.09
78855;BME280;68206;59.956;30.234;2023-10-09T11:07:26;100592.75;;;8.13;50.01
78855;BME280;68206;59.956;30.234;2023-10-09T11:09:57;100595.63;;;8.01;50.04
78855;BME280;68206;59.956;30.234;2023-10-09T11:12:43;100591.47;;;7.91;50.39
78855;BME280;68206;59.956;30.234;2023-10-09T11:15:34;100598.63;;;7.86;49.75
78855;BME280;68206;59.956;30.234;2023-10-09T11:18:12;100596.16;;;7.75;50.58
78855;BME280;68206;59.956;30.234;2023-10-09T11:20:49;100600.81;;;7.62;50.80
78855;BME280;68206;59.956;30.234;2023-10-09T11:23:41;100594.59;;;7.66;51.07
78855;BME280;68206;59.956;30.234;2023-10-09T11:26:22;100600.00;;;7.60;51.23
78855;BME280;68206;59.956;30.234;2023-10-09T11:29:07;100606.28;;;7.53;51.70
78855;BME280;68206;59.956;30.234;2023-10-09T11:32:00;100608.16;;;7.48;51.53
78855;BME280;68206;59.956;30.234;2023-10-09T11:34:28;100609.91;;;7.49;51.65
78855;BME280;68206;59.956;30.234;2023-10-09T11:37:00;100602.91;;;7.47;51.50
78855;BME280;68206;59.956;30.234;2023-10-09T11:39:30;100616.13;;;7.45;51.14
78855;BME280;68206;59.956;30.234;2023-10-09T11:42:22;100610.75;;;7.50;51.63
78855;BME280;68206;59.956;30.234;2023-10-09T11:45:06;100614.22;;;7.53;51.21
78855;BME280;68206;59.956;30.234;2023-10-09T11:47:48;100613.34;;;7.53;51.25
78855;BME280;68206;59.956;30.234;2023-10-09T11:50:43;100611.69;;;7.47;51.56
78855;BME280;68206;59.956;30.234;2023-10-09T11:53:11;100615.22;;;7.46;51.06
78855;BME280;68206;59.956;30.234;2023-10-09T11:56:02;100613.59;;;7.39;50.69
78855;BME280;68206;59.956;30.234;2023-10-09T11:58:30;100611.72;;;7.44;50.25
78855;BME280;68206;59.956;30.234;2023-10-09T12:00:59;100615.09;;;7.52;50.80
78855;BME280;68206;59.956;30.234;2023-10-09T12:03:32;100622.00;;;7.59;50.54
78855;BME280;68206;59.956;30.234;2023-10-09T12:06:01;100613.97;;;7.65;49.95
78855;BME280;68206;59.956;30.234;2023-10-09T12:08:33;100615.94;;;7.54;49.98
78855;BME280;68206;59.956;30.234;2023-10-09T12:11:03;100619.50;;;7.53;50.21
78855;BME280;68206;59.956;30.234;2023-10-09T12:13:37;100614.94;;;7.61;50.42
78855;BME280;68206;59.956;30.234;2023-10-09T12:16:06;100606.91;;;7.67;50.64
78855;BME280;68206;59.956;30.234;2023-10-09T12:18:37;100614.88;;;7.64;50.21
78855;BME280;68206;59.956;30.234;2023-10-09T12:21:06;100616.78;;;7.56;50.11
78855;BME280;68206;59.956;30.234;2023-10-09T12:23:35;100621.13;;;7.59;50.17
78855;BME280;68206;59.956;30.234;2023-10-09T12:26:04;100620.25;;;7.58;49.98
78855;BME280;68206;59.956;30.234;2023-10-09T12:28:42;100622.41;;;7.38;49.75
78855;BME280;68206;59.956;30.234;2023-10-09T12:31:13;100618.81;;;7.42;49.94
78855;BME280;68206;59.956;30.234;2023-10-09T12:33:42;100625.72;;;7.49;50.29
78855;BME280;68206;59.956;30.234;2023-10-09T12:36:12;100615.19;;;7.49;50.59
78855;BME280;68206;59.956;30.234;2023-10-09T12:38:47;100613.53;;;7.42;50.06
78855;BME280;68206;59.956;30.234;2023-10-09T12:41:19;100618.94;;;7.36;50.53
78855;BME280;68206;59.956;30.234;2023-10-09T12:43:55;100620.03;;;7.24;50.60
78855;BME280;68206;59.956;30.234;2023-10-09T12:46:26;100622.63;;;7.26;51.13
78855;BME280;68206;59.956;30.234;2023-10-09T12:48:55;100619.09;;;7.27;50.75
78855;BME280;68206;59.956;30.234;2023-10-09T12:51:24;100628.09;;;7.15;51.02
78855;BME280;68206;59.956;30.234;2023-10-09T12:53:57;100620.28;;;7.09;51.41
78855;BME280;68206;59.956;30.234;2023-10-09T12:56:30;100623.19;;;6.93;51.00
78855;BME280;68206;59.956;30.234;2023-10-09T12:59:06;100628.47;;;6.93;52.14
78855;BME280;68206;59.956;30.234;2023-10-09T13:01:42;100623.91;;;7.02;52.10
78855;BME280;68206;59.956;30.234;2023-10-09T13:04:11;100623.09;;;6.99;51.68
78855;BME280;68206;59.956;30.234;2023-10-09T13:06:42;100625.78;;;6.94;52.08
78855;BME280;68206;59.956;30.234;2023-10-09T13:09:12;100632.09;;;6.85;52.24
78855;BME280;68206;59.956;30.234;2023-10-09T13:11:42;100628.78;;;6.73;52.61
78855;BME280;68206;59.956;30.234;2023-10-09T13:14:12;100637.75;;;6.60;52.79
78855;BME280;68206;59.956;30.234;2023-10-09T13:16:44;100633.31;;;6.63;53.40
78855;BME280;68206;59.956;30.234;2023-10-09T13:19:14;100628.94;;;6.62;53.23
78855;BME280;68206;59.956;30.234;2023-10-09T13:21:43;100633.31;;;6.63;53.62
78855;BME280;68206;59.956;30.234;2023-10-09T13:24:11;100636.88;;;6.61;54.41
78855;BME280;68206;59.956;30.234;2023-10-09T13:26:43;100632.59;;;6.54;53.54
78855;BME280;68206;59.956;30.234;2023-10-09T13:29:15;100635.13;;;6.61;54.34
78855;BME280;68206;59.956;30.234;2023-10-09T13:31:50;100635.06;;;6.64;54.17
78855;BME280;68206;59.956;30.234;2023-10-09T13:34:25;100653.66;;;6.55;54.41
78855;BME280;68206;59.956;30.234;2023-10-09T13:36:56;100644.09;;;6.46;54.18
78855;BME280;68206;59.956;30.234;2023-10-09T13:39:26;100648.66;;;6.35;55.02
78855;BME280;68206;59.956;30.234;2023-10-09T13:41:57;100653.91;;;6.37;55.09